EGMC METAR and TAF | Updated Today

EGMC METAR

Southend Airport

Observation time: 33 min. ago

EGMC 061820Z VRB02KT CAVOK 03/01 Q1040

Need help? Read our tutorial on how to read METARs or read the parsed version below.

Southend Airport (EGMC) METAR

  • Weather conditions on Mon, 06 Feb 2023 18:20:00 +0000 (33 min. ago):
  • Present conditions: Dry
  • Clouds: Clear skies
  • Visibility: Greater than 10 km
  • Wind: Variable at 2 knots
  • Temperature: 3 celsius
  • Dew point: 1 celsius
  • Pressure: 1040 millibars
  • Remarks: None


Useful to know...

EGMC TAF

Southend Airport

TAF EGMC 061657Z 0618/0703 VRB02KT CAVOK PROB30 0618/0622 6000 TEMPO 0622/0703 6000 PROB30 0622/0703 4000 BR
Observation time: 1:56 hr. ago
Need help? Read our tutorial on how to read TAFs or read the parsed version below.

Parsed version of TAF for Southend Airport (EGMC)

  • From 06 February at 18:00 UTC, to day 07 of the month at 03:00 UTC
  • Visibility: Greater than 10 km
  • Wind: Variable at 2
  • From 06 February at 18:00 UTC, to day 06 of the month at 22:00 UTC
    Probability of 30%
  • Visibility: 6000 meters
  • Expected to arise temporarily, from 06 February at 22:00 UTC, to day 07 of the month at 03:00 UTC
  • Visibility: 6000 meters
  • From 06 February at 22:00 UTC, to day 07 of the month at 03:00 UTC
    Probability of 30%
  • Visibility: 4000 meters
  • Other: Mist